Time;durP1;ratioP1;P1;durP2;ratioP2;P2;SDS_P1;SDS_P2;PMS_P1;PMS_P2;Temp;Humidity;BMP_temperature;BMP_pressure;BME280_temperature;BME280_humidity;BME280_pressure;Samples;Min_cycle;Max_cycle;Signal;HPM_P1;HPM_P2
2021/10/20 00:01:37;;;;;;;14.87;13.45;;;;;;;;;;143742;590;47022;-87
2021/10/20 00:04:05;;;;;;;17.10;13.13;;;;;;;;;;143742;611;46012;-88
2021/10/20 00:06:32;;;;;;;13.62;11.63;;;;;;;;;;143739;566;46020;-87
2021/10/20 00:09:09;;;;;;;17.77;14.18;;;;;;;;;;143747;581;46019;-87
2021/10/20 00:11:48;;;;;;;22.23;12.52;;;;;;;;;;143741;591;47023;-88
2021/10/20 00:14:15;;;;;;;16.75;13.43;;;;;;;;;;143741;569;46012;-87
2021/10/20 00:16:42;;;;;;;21.45;12.93;;;;;;;;;;143742;608;47020;-87
2021/10/20 00:19:10;;;;;;;15.50;13.90;;;;;;;;;;143745;599;46012;-87
2021/10/20 00:21:37;;;;;;;25.58;14.68;;;;;;;;;;143747;610;46022;-87
2021/10/20 00:24:05;;;;;;;15.38;13.43;;;;;;;;;;143741;563;46013;-87
2021/10/20 00:26:32;;;;;;;15.77;14.18;;;;;;;;;;143747;580;46018;-87
2021/10/20 00:28:59;;;;;;;17.37;12.45;;;;;;;;;;143743;563;46012;-90
2021/10/20 00:31:26;;;;;;;16.25;14.57;;;;;;;;;;143739;683;46022;-88
2021/10/20 00:33:54;;;;;;;15.55;13.35;;;;;;;;;;143740;565;46012;-88
2021/10/20 00:36:20;;;;;;;20.90;14.10;;;;;;;;;;143740;584;47020;-87
2021/10/20 00:38:48;;;;;;;14.20;12.70;;;;;;;;;;143743;643;47013;-88
2021/10/20 00:41:14;;;;;;;16.70;13.18;;;;;;;;;;143742;594;47023;-88
2021/10/20 00:43:44;;;;;;;15.18;13.65;;;;;;;;;;143743;613;46020;-89
2021/10/20 00:46:11;;;;;;;16.37;14.15;;;;;;;;;;143742;777;47020;-88
2021/10/20 00:48:38;;;;;;;16.85;14.05;;;;;;;;;;143746;581;46013;-86
2021/10/20 00:51:05;;;;;;;14.95;12.85;;;;;;;;;;143742;593;47020;-86
2021/10/20 00:53:35;;;;;;;14.90;13.35;;;;;;;;;;143742;579;46012;-88
2021/10/20 00:56:05;;;;;;;16.50;13.95;;;;;;;;;;143738;580;46021;-88
2021/10/20 00:58:32;;;;;;;14.57;13.13;;;;;;;;;;143746;653;46012;-87
2021/10/20 01:00:59;;;;;;;13.60;11.98;;;;;;;;;;143739;656;48020;-87
2021/10/20 01:03:25;;;;;;;18.40;12.20;;;;;;;;;;143743;565;46013;-88
2021/10/20 01:05:52;;;;;;;18.52;15.90;;;;;;;;;;143742;565;47020;-87
2021/10/20 01:08:19;;;;;;;18.83;14.77;;;;;;;;;;143748;569;46012;-88
2021/10/20 01:10:47;;;;;;;19.02;15.18;;;;;;;;;;143739;605;47023;-88
2021/10/20 01:13:13;;;;;;;14.05;12.55;;;;;;;;;;143744;636;46012;-87
2021/10/20 01:15:40;;;;;;;22.48;12.77;;;;;;;;;;143747;597;46020;-87
2021/10/20 01:18:08;;;;;;;15.45;13.15;;;;;;;;;;143747;609;46012;-87
2021/10/20 01:20:35;;;;;;;17.85;14.55;;;;;;;;;;143733;615;47020;-89
2021/10/20 01:23:02;;;;;;;19.62;13.65;;;;;;;;;;143743;572;46012;-88
2021/10/20 01:25:29;;;;;;;16.08;13.35;;;;;;;;;;143745;570;47021;-89
2021/10/20 01:27:57;;;;;;;17.48;13.62;;;;;;;;;;143748;592;46020;-87
2021/10/20 01:30:28;;;;;;;13.82;12.40;;;;;;;;;;143740;613;47022;-88
2021/10/20 01:32:54;;;;;;;17.23;12.65;;;;;;;;;;143745;629;46021;-86
2021/10/20 01:35:21;;;;;;;16.27;13.20;;;;;;;;;;143746;585;47020;-86
2021/10/20 01:37:48;;;;;;;14.13;12.65;;;;;;;;;;143748;629;46012;-87
2021/10/20 01:40:15;;;;;;;17.90;12.95;;;;;;;;;;143742;589;47021;-86
2021/10/20 01:42:42;;;;;;;13.70;12.27;;;;;;;;;;143743;585;46918;-88
2021/10/20 01:45:10;;;;;;;15.30;13.70;;;;;;;;;;143740;590;46020;-87
2021/10/20 01:47:37;;;;;;;16.50;13.02;;;;;;;;;;143747;571;46013;-87
2021/10/20 01:50:10;;;;;;;16.17;12.60;;;;;;;;;;143741;612;47023;-87
2021/10/20 01:52:37;;;;;;;;;;;;;;;;;;143749;980;46012;-88
2021/10/20 01:55:06;;;;;;;12.30;11.15;;;;;;;;;;143754;598;46021;-87
2021/10/20 01:57:33;;;;;;;13.52;12.13;;;;;;;;;;143748;576;46020;-86
2021/10/20 02:00:00;;;;;;;17.52;11.95;;;;;;;;;;143745;571;47020;-88
2021/10/20 02:02:26;;;;;;;14.68;11.48;;;;;;;;;;143745;613;46010;-85
2021/10/20 02:04:53;;;;;;;12.55;11.12;;;;;;;;;;143747;579;46020;-88
2021/10/20 02:07:20;;;;;;;11.27;10.18;;;;;;;;;;143748;587;46010;-88
2021/10/20 02:09:46;;;;;;;11.60;10.50;;;;;;;;;;143740;607;46022;-87
2021/10/20 02:12:13;;;;;;;14.20;11.43;;;;;;;;;;143744;605;46010;-87
2021/10/20 02:14:40;;;;;;;18.10;11.07;;;;;;;;;;143744;563;47020;-87
2021/10/20 02:17:07;;;;;;;16.40;11.48;;;;;;;;;;143747;610;46021;-88
2021/10/20 02:19:33;;;;;;;14.27;12.37;;;;;;;;;;143743;624;47020;-88
2021/10/20 02:22:03;;;;;;;18.58;11.82;;;;;;;;;;143741;599;46918;-88
2021/10/20 02:24:30;;;;;;;13.65;10.60;;;;;;;;;;143745;619;47021;-88
2021/10/20 02:26:56;;;;;;;14.25;12.07;;;;;;;;;;143745;625;46021;-87
2021/10/20 02:29:23;;;;;;;24.52;11.80;;;;;;;;;;143740;580;47020;-87
2021/10/20 02:31:50;;;;;;;15.38;11.25;;;;;;;;;;143744;575;46020;-86
2021/10/20 02:34:18;;;;;;;21.95;12.02;;;;;;;;;;143732;579;47020;-87
2021/10/20 02:36:45;;;;;;;14.48;12.18;;;;;;;;;;143748;595;46010;-88
2021/10/20 02:39:12;;;;;;;17.55;12.13;;;;;;;;;;143743;642;47022;-88
2021/10/20 02:41:39;;;;;;;16.37;11.43;;;;;;;;;;143744;571;46010;-86
2021/10/20 02:44:06;;;;;;;12.82;11.35;;;;;;;;;;143742;589;47020;-88
2021/10/20 02:46:34;;;;;;;16.30;11.65;;;;;;;;;;143748;577;46011;-89
2021/10/20 02:49:00;;;;;;;15.25;11.48;;;;;;;;;;143744;646;47023;-89
2021/10/20 02:51:29;;;;;;;12.30;11.12;;;;;;;;;;143744;609;46010;-89
2021/10/20 02:53:57;;;;;;;19.85;11.77;;;;;;;;;;143745;593;46020;-88
2021/10/20 02:56:24;;;;;;;11.73;10.52;;;;;;;;;;143747;611;47018;-86
2021/10/20 02:58:51;;;;;;;15.48;11.25;;;;;;;;;;143739;614;47022;-88
2021/10/20 03:01:18;;;;;;;14.40;11.18;;;;;;;;;;143740;564;46011;-87
2021/10/20 03:03:45;;;;;;;12.40;11.05;;;;;;;;;;143746;602;47020;-88
2021/10/20 03:06:16;;;;;;;12.95;10.50;;;;;;;;;;143745;581;46010;-88
2021/10/20 03:08:43;;;;;;;12.18;10.43;;;;;;;;;;143745;614;46020;-87
2021/10/20 03:11:10;;;;;;;11.95;10.77;;;;;;;;;;143745;565;46010;-87
2021/10/20 03:13:37;;;;;;;13.77;12.43;;;;;;;;;;143746;570;47020;-89
2021/10/20 03:16:04;;;;;;;14.32;12.35;;;;;;;;;;143748;573;46010;-88
2021/10/20 03:18:31;;;;;;;12.85;11.52;;;;;;;;;;143743;588;47023;-86
2021/10/20 03:20:57;;;;;;;13.73;10.88;;;;;;;;;;143745;608;46010;-88
2021/10/20 03:23:24;;;;;;;18.00;12.18;;;;;;;;;;143738;627;47020;-86
2021/10/20 03:25:51;;;;;;;16.17;11.52;;;;;;;;;;143746;592;47020;-90
2021/10/20 03:28:18;;;;;;;14.40;11.88;;;;;;;;;;143743;599;46049;-86
2021/10/20 03:30:45;;;;;;;26.58;14.48;;;;;;;;;;143745;564;46011;-88
2021/10/20 03:33:11;;;;;;;21.35;13.32;;;;;;;;;;143746;586;47020;-88
2021/10/20 03:35:38;;;;;;;14.77;13.27;;;;;;;;;;143747;579;46010;-88
2021/10/20 03:38:07;;;;;;;19.37;13.20;;;;;;;;;;143741;754;47022;-87
2021/10/20 03:40:35;;;;;;;15.00;13.50;;;;;;;;;;143744;607;46010;-88
2021/10/20 03:43:03;;;;;;;16.77;13.40;;;;;;;;;;143746;570;47020;-87
2021/10/20 03:45:31;;;;;;;16.52;14.10;;;;;;;;;;143743;591;47010;-86
2021/10/20 03:47:57;;;;;;;15.10;13.60;;;;;;;;;;143738;602;47020;-86
2021/10/20 03:50:25;;;;;;;29.80;13.43;;;;;;;;;;143741;585;46010;-86
2021/10/20 03:52:52;;;;;;;17.45;13.02;;;;;;;;;;143745;598;47020;-87
2021/10/20 03:55:19;;;;;;;21.70;13.85;;;;;;;;;;143748;627;46018;-89
2021/10/20 03:57:46;;;;;;;21.75;14.18;;;;;;;;;;143743;630;46022;-87
2021/10/20 04:00:14;;;;;;;15.25;13.68;;;;;;;;;;143743;612;46010;-87
2021/10/20 04:02:45;;;;;;;15.75;13.98;;;;;;;;;;143745;631;47020;-87
2021/10/20 04:05:13;;;;;;;21.80;14.82;;;;;;;;;;143749;617;46017;-87
2021/10/20 04:07:40;;;;;;;18.92;15.05;;;;;;;;;;143742;599;47020;-89
2021/10/20 04:10:10;;;;;;;17.27;12.82;;;;;;;;;;143744;580;46010;-87
2021/10/20 04:12:37;;;;;;;20.83;13.32;;;;;;;;;;143739;628;47020;-88
2021/10/20 04:15:04;;;;;;;17.15;12.98;;;;;;;;;;143744;617;46021;-88
2021/10/20 04:17:31;;;;;;;15.90;12.20;;;;;;;;;;143743;569;47023;-88
2021/10/20 04:19:58;;;;;;;18.02;14.30;;;;;;;;;;143746;782;46010;-87
2021/10/20 04:22:26;;;;;;;20.55;12.32;;;;;;;;;;143747;591;46047;-88
2021/10/20 04:24:54;;;;;;;15.73;13.18;;;;;;;;;;143746;567;46010;-87
2021/10/20 04:27:21;;;;;;;19.65;12.50;;;;;;;;;;143745;590;46012;-89
2021/10/20 04:29:48;;;;;;;19.10;12.77;;;;;;;;;;143744;579;46021;-86
2021/10/20 04:32:14;;;;;;;14.68;12.43;;;;;;;;;;143750;579;46021;-88
2021/10/20 04:34:42;;;;;;;21.33;12.70;;;;;;;;;;143747;589;46010;-88
2021/10/20 04:37:09;;;;;;;15.07;12.37;;;;;;;;;;143736;597;47021;-88
2021/10/20 04:39:35;;;;;;;18.33;13.05;;;;;;;;;;143745;595;46010;-88
2021/10/20 04:42:02;;;;;;;18.45;13.60;;;;;;;;;;143748;626;46020;-86
2021/10/20 04:44:29;;;;;;;16.08;13.68;;;;;;;;;;143746;632;47020;-87
2021/10/20 04:46:56;;;;;;;17.60;13.20;;;;;;;;;;143744;596;47020;-87
2021/10/20 04:49:23;;;;;;;23.48;15.65;;;;;;;;;;143744;572;46010;-87
2021/10/20 04:51:50;;;;;;;20.27;14.63;;;;;;;;;;143744;599;46020;-86
2021/10/20 04:54:16;;;;;;;24.60;15.40;;;;;;;;;;143749;763;46010;-88
2021/10/20 04:56:43;;;;;;;21.50;15.60;;;;;;;;;;143743;627;47022;-87
2021/10/20 04:59:10;;;;;;;21.90;16.12;;;;;;;;;;143742;595;46020;-87
2021/10/20 05:01:37;;;;;;;22.55;17.05;;;;;;;;;;143740;584;46021;-87
2021/10/20 05:04:04;;;;;;;20.30;15.43;;;;;;;;;;143749;564;46010;-87
2021/10/20 05:06:31;;;;;;;19.70;16.42;;;;;;;;;;143741;648;47021;-89
2021/10/20 05:08:57;;;;;;;30.42;17.85;;;;;;;;;;143741;581;46919;-89
2021/10/20 05:11:24;;;;;;;28.40;15.80;;;;;;;;;;143747;566;47020;-88
2021/10/20 05:13:51;;;;;;;25.83;15.05;;;;;;;;;;143745;608;46019;-88
2021/10/20 05:16:18;;;;;;;28.10;14.57;;;;;;;;;;143742;683;47023;-86
2021/10/20 05:18:45;;;;;;;19.10;15.15;;;;;;;;;;143744;632;46010;-88
2021/10/20 05:21:11;;;;;;;23.98;15.30;;;;;;;;;;143746;575;48020;-88
2021/10/20 05:23:38;;;;;;;19.55;15.52;;;;;;;;;;143747;605;46019;-88
2021/10/20 05:26:05;;;;;;;18.08;13.75;;;;;;;;;;143739;613;46020;-87
2021/10/20 05:28:31;;;;;;;17.37;14.18;;;;;;;;;;143746;573;46047;-86
2021/10/20 05:30:58;;;;;;;20.30;14.07;;;;;;;;;;143746;574;47020;-86
2021/10/20 05:33:25;;;;;;;17.20;13.77;;;;;;;;;;143746;569;46010;-85
2021/10/20 05:35:52;;;;;;;28.20;14.55;;;;;;;;;;143744;581;47022;-86
2021/10/20 05:38:19;;;;;;;22.83;13.98;;;;;;;;;;143738;627;46010;-85
2021/10/20 05:40:46;;;;;;;25.45;15.38;;;;;;;;;;143747;591;46020;-87
2021/10/20 05:43:13;;;;;;;25.80;16.48;;;;;;;;;;143746;750;46018;-85
2021/10/20 05:45:39;;;;;;;23.95;15.63;;;;;;;;;;143744;564;46047;-85
2021/10/20 05:48:07;;;;;;;27.95;15.32;;;;;;;;;;143744;598;46010;-85
2021/10/20 05:50:34;;;;;;;21.73;15.27;;;;;;;;;;143739;682;47020;-85
2021/10/20 05:53:01;;;;;;;26.92;16.12;;;;;;;;;;143745;598;46010;-85
2021/10/20 05:55:28;;;;;;;21.92;16.55;;;;;;;;;;143744;572;47022;-87
2021/10/20 05:57:55;;;;;;;24.63;17.98;;;;;;;;;;143744;591;46010;-86
2021/10/20 06:00:22;;;;;;;27.15;17.33;;;;;;;;;;143744;579;47021;-87
2021/10/20 06:02:49;;;;;;;26.30;15.43;;;;;;;;;;143742;566;47010;-85
2021/10/20 06:05:15;;;;;;;26.25;17.48;;;;;;;;;;143742;600;46045;-87
2021/10/20 06:07:45;;;;;;;21.05;15.93;;;;;;;;;;143741;585;46011;-85
2021/10/20 06:10:15;;;;;;;21.17;15.68;;;;;;;;;;143745;572;47020;-93
2021/10/20 06:12:42;;;;;;;22.83;16.30;;;;;;;;;;143747;591;46010;-86
2021/10/20 06:15:09;;;;;;;24.60;16.35;;;;;;;;;;143734;565;47022;-86
2021/10/20 06:17:37;;;;;;;18.62;15.13;;;;;;;;;;143740;597;46010;-85
2021/10/20 06:20:09;;;;;;;18.62;14.93;;;;;;;;;;143743;604;46020;-87
2021/10/20 06:22:40;;;;;;;19.15;14.63;;;;;;;;;;143746;581;46010;-86
2021/10/20 06:25:08;;;;;;;15.57;13.98;;;;;;;;;;143740;585;47022;-85
2021/10/20 06:27:35;;;;;;;21.17;14.05;;;;;;;;;;143743;595;46020;-85
2021/10/20 06:30:03;;;;;;;17.02;13.88;;;;;;;;;;143745;570;46021;-85
2021/10/20 06:32:33;;;;;;;22.70;15.32;;;;;;;;;;143745;576;47010;-86
2021/10/20 06:35:00;;;;;;;21.98;16.33;;;;;;;;;;143738;586;47022;-85
2021/10/20 06:37:34;;;;;;;20.88;13.88;;;;;;;;;;143743;708;46021;-87
2021/10/20 06:40:02;;;;;;;24.67;14.30;;;;;;;;;;143737;636;47020;-85
2021/10/20 06:42:31;;;;;;;17.02;14.38;;;;;;;;;;143745;578;46020;-85
2021/10/20 06:44:58;;;;;;;25.70;14.10;;;;;;;;;;143745;587;46049;-86
2021/10/20 06:47:25;;;;;;;24.60;13.95;;;;;;;;;;143742;593;46020;-83
2021/10/20 06:49:52;;;;;;;21.48;15.20;;;;;;;;;;143744;618;46020;-86
2021/10/20 06:52:19;;;;;;;18.92;15.07;;;;;;;;;;143743;581;47010;-84
2021/10/20 06:54:46;;;;;;;18.52;14.93;;;;;;;;;;143742;586;47022;-84
2021/10/20 06:57:12;;;;;;;18.90;14.43;;;;;;;;;;143741;592;46010;-84
2021/10/20 06:59:41;;;;;;;18.83;16.75;;;;;;;;;;143744;581;47021;-85
2021/10/20 07:02:08;;;;;;;22.73;17.20;;;;;;;;;;143743;573;46010;-85
2021/10/20 07:04:35;;;;;;;19.98;15.60;;;;;;;;;;143735;576;47022;-84
2021/10/20 07:07:02;;;;;;;25.73;17.12;;;;;;;;;;143741;569;46011;-86
2021/10/20 07:09:29;;;;;;;19.25;15.93;;;;;;;;;;143741;569;47018;-86
2021/10/20 07:11:58;;;;;;;19.83;16.27;;;;;;;;;;143746;599;46010;-85
2021/10/20 07:14:24;;;;;;;18.52;15.25;;;;;;;;;;143740;588;47021;-85
2021/10/20 07:16:51;;;;;;;15.52;13.88;;;;;;;;;;143741;569;46010;-84
2021/10/20 07:19:19;;;;;;;21.65;16.02;;;;;;;;;;143744;575;46020;-85
2021/10/20 07:21:46;;;;;;;21.02;16.02;;;;;;;;;;143745;570;46010;-85
2021/10/20 07:24:13;;;;;;;20.75;16.37;;;;;;;;;;143736;569;47020;-85
2021/10/20 07:26:39;;;;;;;19.10;15.13;;;;;;;;;;143732;611;47010;-86
2021/10/20 07:29:06;;;;;;;20.50;16.60;;;;;;;;;;143737;603;46021;-87
2021/10/20 07:31:33;;;;;;;16.92;14.57;;;;;;;;;;143747;569;46010;-83
2021/10/20 07:34:01;;;;;;;19.80;14.50;;;;;;;;;;143735;580;47022;-84
2021/10/20 07:36:28;;;;;;;18.45;14.75;;;;;;;;;;143742;619;46010;-81
2021/10/20 07:38:55;;;;;;;18.87;14.75;;;;;;;;;;143744;577;46020;-82
2021/10/20 07:41:22;;;;;;;18.33;14.18;;;;;;;;;;143745;608;46020;-83
2021/10/20 07:43:52;;;;;;;25.08;14.95;;;;;;;;;;143737;576;47021;-86
2021/10/20 07:46:22;;;;;;;21.10;16.20;;;;;;;;;;143741;576;46010;-85
2021/10/20 07:48:50;;;;;;;23.95;15.23;;;;;;;;;;143746;591;46012;-86
2021/10/20 07:51:19;;;;;;;17.67;12.73;;;;;;;;;;143749;624;46010;-86
2021/10/20 07:53:46;;;;;;;15.48;13.05;;;;;;;;;;143736;612;47023;-85
2021/10/20 07:56:21;;;;;;;15.57;13.70;;;;;;;;;;143743;607;46020;-86
2021/10/20 07:59:02;;;;;;;18.52;13.62;;;;;;;;;;143744;659;46049;-84
2021/10/20 08:01:32;;;;;;;16.10;10.80;;;;;;;;;;143745;606;46010;-85
2021/10/20 08:04:04;;;;;;;13.32;11.98;;;;;;;;;;143739;606;47022;-85
2021/10/20 08:06:32;;;;;;;17.08;11.90;;;;;;;;;;143741;582;46011;-84
2021/10/20 08:09:07;;;;;;;15.55;11.98;;;;;;;;;;143745;633;46020;-83
2021/10/20 08:11:37;;;;;;;17.10;12.98;;;;;;;;;;143744;579;46010;-85
2021/10/20 08:14:04;;;;;;;11.80;10.68;;;;;;;;;;143755;668;46022;-85
2021/10/20 08:16:31;;;;;;;17.45;12.25;;;;;;;;;;143753;587;45919;-86
2021/10/20 08:18:59;;;;;;;20.17;12.85;;;;;;;;;;143755;565;47020;-84
2021/10/20 08:21:26;;;;;;;15.93;12.57;;;;;;;;;;143754;573;46019;-87
2021/10/20 08:23:53;;;;;;;15.00;13.02;;;;;;;;;;143753;566;46022;-86
2021/10/20 08:26:20;;;;;;;14.75;12.50;;;;;;;;;;143753;630;45919;-86
2021/10/20 08:28:48;;;;;;;12.88;11.55;;;;;;;;;;143756;569;47021;-86
2021/10/20 08:31:15;;;;;;;13.38;12.05;;;;;;;;;;143757;594;45020;-85
2021/10/20 08:33:42;;;;;;;13.15;11.88;;;;;;;;;;143755;620;46048;-87
2021/10/20 08:36:10;;;;;;;20.08;13.40;;;;;;;;;;143754;574;45919;-86
2021/10/20 08:38:36;;;;;;;15.65;13.98;;;;;;;;;;143755;585;47020;-87
2021/10/20 08:41:03;;;;;;;16.27;14.32;;;;;;;;;;143756;684;46018;-87
2021/10/20 08:43:30;;;;;;;14.75;13.25;;;;;;;;;;143755;629;46021;-86
2021/10/20 08:45:57;;;;;;;17.52;14.15;;;;;;;;;;143753;609;45920;-87
2021/10/20 08:48:24;;;;;;;18.67;14.18;;;;;;;;;;143755;632;46020;-86
2021/10/20 08:50:56;;;;;;;16.08;14.45;;;;;;;;;;143760;570;45021;-86
2021/10/20 08:53:23;;;;;;;17.25;14.93;;;;;;;;;;143751;573;47023;-87
2021/10/20 08:55:51;;;;;;;22.70;15.60;;;;;;;;;;143753;585;45919;-86
2021/10/20 08:58:20;;;;;;;17.90;15.07;;;;;;;;;;143754;730;47021;-85
2021/10/20 09:00:49;;;;;;;14.77;13.40;;;;;;;;;;143757;647;46020;-87
2021/10/20 09:03:16;;;;;;;16.80;14.60;;;;;;;;;;143755;697;47022;-86
2021/10/20 09:05:43;;;;;;;18.52;13.43;;;;;;;;;;143757;573;45920;-87
2021/10/20 09:08:10;;;;;;;14.40;12.90;;;;;;;;;;143757;620;46020;-86
2021/10/20 09:10:36;;;;;;;13.68;12.18;;;;;;;;;;143755;674;45020;-87
2021/10/20 09:13:04;;;;;;;16.52;13.80;;;;;;;;;;143744;572;46022;-86
2021/10/20 09:15:34;;;;;;;15.75;14.07;;;;;;;;;;143737;629;46010;-85
2021/10/20 09:18:07;;;;;;;14.50;13.02;;;;;;;;;;143744;688;46012;-84
2021/10/20 09:20:39;;;;;;;15.57;13.93;;;;;;;;;;143746;672;46011;-86
2021/10/20 09:23:14;;;;;;;15.23;13.60;;;;;;;;;;143741;582;46051;-86
2021/10/20 09:25:52;;;;;;;21.30;16.58;;;;;;;;;;143742;742;46010;-87
2021/10/20 09:28:44;;;;;;;20.75;17.27;;;;;;;;;;143746;698;46021;-86
2021/10/20 09:31:12;;;;;;;28.60;22.50;;;;;;;;;;143745;577;46012;-86
2021/10/20 09:33:42;;;;;;;22.45;19.17;;;;;;;;;;143735;683;47022;-86
2021/10/20 09:36:24;;;;;;;;;;;;;;;;;;;;;
2021/10/20 09:38:52;;;;;;;17.27;15.13;;;;;;;;;;143746;599;46014;-86
2021/10/20 09:41:19;;;;;;;17.40;15.32;;;;;;;;;;143746;579;46018;-86
2021/10/20 09:43:54;;;;;;;19.45;14.77;;;;;;;;;;143742;581;46013;-86
2021/10/20 09:46:50;;;;;;;18.92;15.55;;;;;;;;;;143740;593;46010;-84
2021/10/20 09:49:22;;;;;;;27.17;15.48;;;;;;;;;;143744;596;46014;-84
2021/10/20 09:51:58;;;;;;;18.75;15.27;;;;;;;;;;143742;627;46018;-85
2021/10/20 09:54:29;;;;;;;17.23;14.43;;;;;;;;;;143742;592;47020;-86
2021/10/20 09:57:01;;;;;;;18.95;14.20;;;;;;;;;;143740;571;46011;-86
2021/10/20 09:59:28;;;;;;;15.65;14.13;;;;;;;;;;143738;585;47012;-85
2021/10/20 10:01:57;;;;;;;17.67;12.57;;;;;;;;;;143745;621;46010;-86
2021/10/20 10:04:25;;;;;;;17.65;11.63;;;;;;;;;;143742;580;47021;-85
2021/10/20 10:06:52;;;;;;;14.35;12.85;;;;;;;;;;143742;712;46010;-85
2021/10/20 10:09:19;;;;;;;16.85;12.63;;;;;;;;;;143741;660;47020;-84
2021/10/20 10:11:57;;;;;;;15.25;13.68;;;;;;;;;;143744;564;46011;-85
2021/10/20 10:14:40;;;;;;;18.65;14.63;;;;;;;;;;143738;686;47023;-85
2021/10/20 10:17:10;;;;;;;14.38;12.68;;;;;;;;;;143741;569;46010;-85
2021/10/20 10:19:41;;;;;;;13.98;12.48;;;;;;;;;;143745;584;47020;-86
2021/10/20 10:22:27;;;;;;;18.80;12.50;;;;;;;;;;143745;619;46010;-85
2021/10/20 10:24:59;;;;;;;15.98;13.23;;;;;;;;;;143734;619;47020;-86
2021/10/20 10:27:28;;;;;;;15.60;12.77;;;;;;;;;;143743;574;46011;-86
2021/10/20 10:30:18;;;;;;;17.10;14.00;;;;;;;;;;143745;572;46041;-85
2021/10/20 10:32:53;;;;;;;18.48;13.50;;;;;;;;;;143748;593;46020;-85
2021/10/20 10:35:20;;;;;;;23.12;13.60;;;;;;;;;;143738;625;47021;-85
2021/10/20 10:37:47;;;;;;;18.27;13.38;;;;;;;;;;143736;570;46010;-86
2021/10/20 10:40:22;;;;;;;12.98;11.63;;;;;;;;;;143732;630;47020;-86
2021/10/20 10:42:50;;;;;;;15.60;11.60;;;;;;;;;;143734;586;46021;-86
2021/10/20 10:45:22;;;;;;;12.37;11.18;;;;;;;;;;143730;660;47023;-85
2021/10/20 10:48:00;;;;;;;12.47;11.13;;;;;;;;;;143731;593;46010;-85
2021/10/20 10:50:48;;;;;;;12.77;11.27;;;;;;;;;;143732;580;46021;-88
2021/10/20 10:53:31;;;;;;;12.95;11.65;;;;;;;;;;143734;578;46018;-85
2021/10/20 10:56:14;;;;;;;13.77;10.60;;;;;;;;;;143732;579;47022;-86
2021/10/20 10:59:06;;;;;;;13.40;12.05;;;;;;;;;;143731;598;46010;-85
2021/10/20 11:01:49;;;;;;;15.38;11.55;;;;;;;;;;143733;703;46020;-87
2021/10/20 11:04:36;;;;;;;13.82;11.82;;;;;;;;;;143735;567;46019;-86
2021/10/20 11:07:03;;;;;;;12.23;10.93;;;;;;;;;;143731;569;47023;-86
2021/10/20 11:09:32;;;;;;;12.82;11.10;;;;;;;;;;143731;564;47020;-85
2021/10/20 11:12:03;;;;;;;12.32;11.12;;;;;;;;;;143738;607;47020;-86
2021/10/20 11:14:33;;;;;;;12.68;10.60;;;;;;;;;;143749;618;45021;-85
2021/10/20 11:17:07;;;;;;;11.90;10.38;;;;;;;;;;143743;580;47022;-84
2021/10/20 11:19:34;;;;;;;12.48;11.15;;;;;;;;;;143744;579;46011;-85
2021/10/20 11:22:05;;;;;;;12.73;11.48;;;;;;;;;;143745;589;47020;-85
2021/10/20 11:24:35;;;;;;;10.80;9.80;;;;;;;;;;143749;736;45028;-86
2021/10/20 11:27:05;;;;;;;10.90;9.80;;;;;;;;;;143744;570;47021;-85
2021/10/20 11:29:45;;;;;;;12.93;10.80;;;;;;;;;;143744;691;46920;-85
2021/10/20 11:32:17;;;;;;;11.75;10.60;;;;;;;;;;143748;671;46020;-85
2021/10/20 11:34:45;;;;;;;14.50;11.00;;;;;;;;;;143749;565;46010;-86
2021/10/20 11:37:17;;;;;;;11.57;10.38;;;;;;;;;;143745;587;47020;-84
2021/10/20 11:39:58;;;;;;;11.18;10.07;;;;;;;;;;143747;569;46020;-84
2021/10/20 11:42:26;;;;;;;11.60;9.98;;;;;;;;;;143747;655;46019;-83
2021/10/20 11:44:54;;;;;;;12.02;10.82;;;;;;;;;;143745;724;47010;-85
2021/10/20 11:47:21;;;;;;;13.20;11.98;;;;;;;;;;143747;593;46022;-85
2021/10/20 11:49:53;;;;;;;13.93;12.48;;;;;;;;;;143733;575;46010;-84
2021/10/20 11:52:22;;;;;;;12.37;10.00;;;;;;;;;;143746;599;46020;-84
2021/10/20 11:54:49;;;;;;;11.77;10.57;;;;;;;;;;143749;705;46018;-84
2021/10/20 11:57:17;;;;;;;13.32;11.98;;;;;;;;;;143746;575;47022;-86
2021/10/20 11:59:49;;;;;;;14.48;12.18;;;;;;;;;;143745;607;45919;-85
2021/10/20 12:02:17;;;;;;;17.17;13.02;;;;;;;;;;143747;569;46020;-85
2021/10/20 12:04:48;;;;;;;13.65;12.25;;;;;;;;;;143749;574;46010;-84
2021/10/20 12:07:25;;;;;;;13.05;11.75;;;;;;;;;;143745;583;46048;-85
2021/10/20 12:10:04;;;;;;;11.02;10.00;;;;;;;;;;143747;590;45919;-83
2021/10/20 12:12:31;;;;;;;12.95;10.38;;;;;;;;;;143738;589;46021;-84
2021/10/20 12:14:59;;;;;;;12.77;10.65;;;;;;;;;;143736;576;47018;-84
2021/10/20 12:17:29;;;;;;;12.05;10.95;;;;;;;;;;143732;602;47022;-85
2021/10/20 12:19:58;;;;;;;13.48;11.25;;;;;;;;;;143733;591;46021;-85
2021/10/20 12:22:27;;;;;;;14.43;11.52;;;;;;;;;;143731;586;47020;-86
2021/10/20 12:24:55;;;;;;;11.38;10.40;;;;;;;;;;143735;599;46010;-84
2021/10/20 12:27:23;;;;;;;14.10;12.05;;;;;;;;;;143732;602;47022;-86
2021/10/20 12:29:56;;;;;;;21.67;11.98;;;;;;;;;;143732;599;46010;-84
2021/10/20 12:32:31;;;;;;;11.85;10.65;;;;;;;;;;143732;608;46018;-86
2021/10/20 12:35:08;;;;;;;12.18;11.05;;;;;;;;;;143734;613;46021;-86
2021/10/20 12:37:40;;;;;;;10.57;9.27;;;;;;;;;;143731;570;47020;-87
2021/10/20 12:40:27;;;;;;;11.40;10.23;;;;;;;;;;143731;627;46010;-86
2021/10/20 12:43:07;;;;;;;12.82;11.48;;;;;;;;;;143736;578;46021;-85
2021/10/20 12:45:35;;;;;;;11.32;10.23;;;;;;;;;;143736;598;46018;-86
2021/10/20 12:48:07;;;;;;;11.77;10.48;;;;;;;;;;143732;591;47022;-85
2021/10/20 12:50:46;;;;;;;12.57;11.23;;;;;;;;;;143730;586;48940;-84
2021/10/20 12:53:14;;;;;;;10.65;9.65;;;;;;;;;;143732;602;47020;-85
2021/10/20 12:55:44;;;;;;;14.07;10.52;;;;;;;;;;143734;651;46011;-84
2021/10/20 12:58:15;;;;;;;10.75;9.75;;;;;;;;;;143732;577;47023;-85
2021/10/20 13:00:43;;;;;;;10.13;9.05;;;;;;;;;;143731;570;46010;-86
2021/10/20 13:03:10;;;;;;;11.60;8.73;;;;;;;;;;143737;570;47021;-85
2021/10/20 13:05:37;;;;;;;10.40;8.73;;;;;;;;;;143736;569;46018;-85
2021/10/20 13:08:05;;;;;;;13.35;10.55;;;;;;;;;;143731;602;47022;-85
2021/10/20 13:10:32;;;;;;;10.73;9.57;;;;;;;;;;143732;592;46010;-84
2021/10/20 13:13:00;;;;;;;12.37;9.68;;;;;;;;;;143732;559;47021;-86
2021/10/20 13:15:29;;;;;;;12.80;9.00;;;;;;;;;;143735;591;46020;-85
2021/10/20 13:17:57;;;;;;;9.65;8.75;;;;;;;;;;143731;595;47021;-86
2021/10/20 13:20:23;;;;;;;10.82;9.13;;;;;;;;;;143732;622;46020;-85
2021/10/20 13:22:50;;;;;;;20.25;9.98;;;;;;;;;;143731;682;47020;-86
2021/10/20 13:25:17;;;;;;;10.63;9.50;;;;;;;;;;143733;587;46011;-86
2021/10/20 13:27:44;;;;;;;12.32;8.65;;;;;;;;;;143731;599;47021;-85
2021/10/20 13:30:14;;;;;;;10.05;9.05;;;;;;;;;;143732;582;46010;-85
2021/10/20 13:32:40;;;;;;;10.60;9.07;;;;;;;;;;143736;623;46020;-85
2021/10/20 13:35:08;;;;;;;13.00;10.10;;;;;;;;;;143735;659;46010;-86
2021/10/20 13:37:35;;;;;;;10.50;9.52;;;;;;;;;;143732;597;47020;-86
2021/10/20 13:40:03;;;;;;;9.50;8.60;;;;;;;;;;143733;581;46010;-86
2021/10/20 13:42:30;;;;;;;10.27;9.27;;;;;;;;;;143734;565;46021;-86
2021/10/20 13:45:04;;;;;;;10.40;9.35;;;;;;;;;;143733;585;46037;-85
2021/10/20 13:47:31;;;;;;;11.95;9.32;;;;;;;;;;143730;582;47020;-86
2021/10/20 13:49:58;;;;;;;11.68;9.13;;;;;;;;;;143732;567;46918;-85
2021/10/20 13:52:26;;;;;;;17.15;10.25;;;;;;;;;;143734;598;46020;-86
2021/10/20 13:54:53;;;;;;;9.55;8.63;;;;;;;;;;143736;615;46020;-86
2021/10/20 13:57:20;;;;;;;15.18;9.35;;;;;;;;;;143734;579;46023;-86
2021/10/20 13:59:48;;;;;;;11.73;9.73;;;;;;;;;;143733;589;46010;-85
2021/10/20 14:02:14;;;;;;;10.23;9.30;;;;;;;;;;143734;615;47020;-86
2021/10/20 14:04:42;;;;;;;11.75;10.48;;;;;;;;;;143736;566;47018;-85
2021/10/20 14:07:10;;;;;;;12.25;9.75;;;;;;;;;;143733;570;47020;-86
2021/10/20 14:09:37;;;;;;;10.90;9.65;;;;;;;;;;143733;600;46010;-87
2021/10/20 14:12:05;;;;;;;10.45;9.35;;;;;;;;;;143743;582;46021;-87
2021/10/20 14:14:32;;;;;;;11.38;9.90;;;;;;;;;;143759;564;45020;-85
2021/10/20 14:17:00;;;;;;;12.13;9.82;;;;;;;;;;143753;578;46022;-84
2021/10/20 14:19:27;;;;;;;11.32;8.63;;;;;;;;;;143754;601;46918;-84
2021/10/20 14:21:54;;;;;;;11.75;9.90;;;;;;;;;;143754;578;46020;-85
2021/10/20 14:24:20;;;;;;;13.05;9.77;;;;;;;;;;143758;577;45020;-85
2021/10/20 14:26:49;;;;;;;12.57;9.07;;;;;;;;;;143755;575;47023;-86
2021/10/20 14:29:17;;;;;;;11.88;9.27;;;;;;;;;;143755;610;45918;-85
2021/10/20 14:31:43;;;;;;;9.38;8.35;;;;;;;;;;143754;578;47020;-86